MSR988 KEWR-HECA
Flight info
| Callsign | MSR988 |
|---|---|
| Flight time | N/A |
| Altitude | 35000 |
| Route | BETTE DCT ACK DCT SAILE DCT DOVEY/M086F370 NATY ATSUR DCT RATKA/N0496F370 DCT LARLA/N0496F390 DCT OTOFE UN491 RESMI DCT SOMDA DCT BEGAR N491 TRA DCT SUXAN DCT PEVAL DCT ULPIN DCT PETAK DCT TRN DCT PINDO DCT KUMBI L612 BLT A16 CVO |
| Aircraft | B789/H-SDE1E2E3FGHIJ2J3J4J5M1RWXY/LB1D1 |
Departure
| Time | N/A |
|---|---|
| Airport | Newark Liberty International Airport (KEWR) |
Arrival
| Time | 2026-04-29 07:51 |
|---|---|
| Airport | Cairo International Airport (HECA) |
| Time | Latitude | Longitude | Altitude | Speed | Heading |
|---|---|---|---|---|---|
| 2026-04-29 06:29 | 37.76858 | 24.32234 | 41084 ft | 521 kts | 140° |
| 2026-04-29 06:29 | 37.74195 | 24.35358 | 41083 ft | 522 kts | 140° |
| 2026-04-29 06:30 | 37.66190 | 24.44734 | 41087 ft | 524 kts | 140° |
| 2026-04-29 06:31 | 37.60827 | 24.50999 | 41072 ft | 526 kts | 140° |
| 2026-04-29 06:31 | 37.55469 | 24.57245 | 41090 ft | 523 kts | 140° |
| 2026-04-29 06:32 | 37.50272 | 24.63290 | 41081 ft | 521 kts | 140° |
| 2026-04-29 06:32 | 37.44932 | 24.69490 | 41079 ft | 522 kts | 140° |
| 2026-04-29 06:33 | 37.39578 | 24.75693 | 41080 ft | 523 kts | 140° |
| 2026-04-29 06:33 | 37.34212 | 24.81898 | 41082 ft | 524 kts | 140° |
| 2026-04-29 06:34 | 37.28839 | 24.88099 | 41071 ft | 525 kts | 140° |
| 2026-04-29 06:34 | 37.23449 | 24.94305 | 41070 ft | 525 kts | 140° |
| 2026-04-29 06:35 | 37.18150 | 25.00396 | 41077 ft | 525 kts | 140° |
| 2026-04-29 06:35 | 37.12801 | 25.06531 | 41076 ft | 525 kts | 140° |
| 2026-04-29 06:36 | 37.07406 | 25.12707 | 41079 ft | 526 kts | 140° |
| 2026-04-29 06:36 | 37.01995 | 25.18888 | 41078 ft | 526 kts | 140° |
| 2026-04-29 06:37 | 36.96584 | 25.25058 | 41075 ft | 526 kts | 140° |
| 2026-04-29 06:37 | 36.91166 | 25.31221 | 41069 ft | 526 kts | 141° |
| 2026-04-29 06:38 | 36.85754 | 25.37368 | 41061 ft | 526 kts | 141° |
| 2026-04-29 06:38 | 36.80425 | 25.43406 | 41056 ft | 526 kts | 141° |
| 2026-04-29 06:39 | 36.74996 | 25.49547 | 41058 ft | 527 kts | 141° |
| 2026-04-29 06:39 | 36.69559 | 25.55684 | 41052 ft | 527 kts | 141° |
| 2026-04-29 06:40 | 36.64141 | 25.61786 | 41053 ft | 528 kts | 141° |
| 2026-04-29 06:40 | 36.58698 | 25.67907 | 41040 ft | 527 kts | 141° |
| 2026-04-29 06:41 | 36.53251 | 25.74019 | 41050 ft | 527 kts | 141° |
| 2026-04-29 06:41 | 36.47791 | 25.80133 | 41047 ft | 527 kts | 141° |
| 2026-04-29 06:42 | 36.42335 | 25.86230 | 41048 ft | 527 kts | 141° |
| 2026-04-29 06:42 | 36.36875 | 25.92320 | 41040 ft | 528 kts | 141° |
| 2026-04-29 06:43 | 36.31424 | 25.98388 | 41038 ft | 530 kts | 141° |
| 2026-04-29 06:43 | 36.25939 | 26.04484 | 41033 ft | 529 kts | 141° |
| 2026-04-29 06:44 | 36.20466 | 26.10552 | 41028 ft | 527 kts | 141° |
| 2026-04-29 06:44 | 36.15003 | 26.16598 | 41025 ft | 526 kts | 141° |
| 2026-04-29 06:45 | 36.09544 | 26.22627 | 41039 ft | 527 kts | 141° |
| 2026-04-29 06:45 | 36.04054 | 26.28678 | 41037 ft | 529 kts | 141° |
| 2026-04-29 06:46 | 35.98541 | 26.34746 | 41040 ft | 531 kts | 141° |
| 2026-04-29 06:46 | 35.93025 | 26.40802 | 41038 ft | 530 kts | 141° |
| 2026-04-29 06:47 | 35.87519 | 26.46837 | 41036 ft | 529 kts | 141° |
| 2026-04-29 06:47 | 35.82019 | 26.52853 | 41030 ft | 528 kts | 141° |
| 2026-04-29 06:48 | 35.76556 | 26.58816 | 41027 ft | 529 kts | 141° |
| 2026-04-29 06:48 | 35.71037 | 26.64830 | 41022 ft | 530 kts | 141° |
| 2026-04-29 06:49 | 35.65508 | 26.70844 | 41028 ft | 530 kts | 142° |
| 2026-04-29 06:49 | 35.59976 | 26.76848 | 41026 ft | 531 kts | 142° |
| 2026-04-29 06:50 | 35.54440 | 26.82847 | 41022 ft | 531 kts | 142° |
| 2026-04-29 06:50 | 35.48900 | 26.88837 | 41015 ft | 530 kts | 142° |
| 2026-04-29 06:51 | 35.43345 | 26.94832 | 41010 ft | 532 kts | 142° |
| 2026-04-29 06:51 | 35.37790 | 27.00816 | 40988 ft | 531 kts | 142° |
| 2026-04-29 06:52 | 35.32240 | 27.06782 | 41006 ft | 531 kts | 142° |
| 2026-04-29 06:52 | 35.26679 | 27.12750 | 41005 ft | 532 kts | 142° |
| 2026-04-29 06:53 | 35.21099 | 27.18726 | 41007 ft | 533 kts | 142° |
| 2026-04-29 06:53 | 35.15556 | 27.24652 | 41010 ft | 532 kts | 142° |
| 2026-04-29 06:54 | 35.09988 | 27.30594 | 41009 ft | 531 kts | 142° |
| 2026-04-29 06:54 | 35.04429 | 27.36514 | 41004 ft | 530 kts | 142° |
| 2026-04-29 06:55 | 34.98878 | 27.42414 | 41008 ft | 529 kts | 142° |
| 2026-04-29 06:55 | 34.93319 | 27.48311 | 41001 ft | 530 kts | 142° |
| 2026-04-29 06:56 | 34.87749 | 27.54211 | 41001 ft | 531 kts | 142° |
| 2026-04-29 06:56 | 34.82161 | 27.60117 | 41000 ft | 533 kts | 142° |
| 2026-04-29 06:57 | 34.76542 | 27.66047 | 41003 ft | 533 kts | 142° |
| 2026-04-29 06:57 | 34.70932 | 27.71954 | 40999 ft | 532 kts | 142° |
| 2026-04-29 06:58 | 34.65336 | 27.77837 | 40997 ft | 531 kts | 142° |
| 2026-04-29 06:58 | 34.59779 | 27.83667 | 40994 ft | 530 kts | 142° |
| 2026-04-29 06:59 | 34.54182 | 27.89527 | 40998 ft | 532 kts | 142° |
| 2026-04-29 06:59 | 34.48563 | 27.95401 | 41009 ft | 534 kts | 142° |
| 2026-04-29 07:00 | 34.42935 | 28.01274 | 41007 ft | 534 kts | 142° |
| 2026-04-29 07:00 | 34.37298 | 28.07145 | 41019 ft | 534 kts | 142° |
| 2026-04-29 07:01 | 34.31662 | 28.13004 | 41003 ft | 534 kts | 142° |
| 2026-04-29 07:01 | 34.26028 | 28.18850 | 41000 ft | 533 kts | 142° |
| 2026-04-29 07:02 | 34.20384 | 28.24696 | 40999 ft | 534 kts | 142° |
| 2026-04-29 07:02 | 34.14769 | 28.30501 | 41004 ft | 535 kts | 142° |
| 2026-04-29 07:03 | 34.09101 | 28.36351 | 41008 ft | 535 kts | 143° |
| 2026-04-29 07:03 | 34.03447 | 28.42175 | 41010 ft | 535 kts | 142° |
| 2026-04-29 07:04 | 33.97778 | 28.48003 | 41004 ft | 534 kts | 142° |
| 2026-04-29 07:04 | 33.92123 | 28.53807 | 41017 ft | 535 kts | 143° |
| 2026-04-29 07:05 | 33.86462 | 28.59607 | 41018 ft | 535 kts | 143° |
| 2026-04-29 07:05 | 33.81746 | 28.64431 | 41002 ft | 534 kts | 143° |
| 2026-04-29 07:06 | 33.76079 | 28.70218 | 41004 ft | 534 kts | 143° |
| 2026-04-29 07:06 | 33.69577 | 28.77031 | 41023 ft | 534 kts | 139° |
| 2026-04-29 07:07 | 33.65033 | 28.82159 | 40994 ft | 535 kts | 140° |
| 2026-04-29 07:07 | 33.59622 | 28.88207 | 41011 ft | 536 kts | 140° |
| 2026-04-29 07:08 | 33.54162 | 28.94340 | 41015 ft | 537 kts | 140° |
| 2026-04-29 07:08 | 33.48691 | 29.00446 | 41014 ft | 537 kts | 140° |
| 2026-04-29 07:09 | 33.43237 | 29.06539 | 41009 ft | 535 kts | 140° |
| 2026-04-29 07:09 | 33.37790 | 29.12604 | 41007 ft | 534 kts | 140° |
| 2026-04-29 07:10 | 33.32350 | 29.18655 | 40996 ft | 533 kts | 140° |
| 2026-04-29 07:10 | 33.26899 | 29.24704 | 41025 ft | 536 kts | 140° |
| 2026-04-29 07:11 | 33.21461 | 29.30732 | 41016 ft | 536 kts | 140° |
| 2026-04-29 07:11 | 33.15988 | 29.36784 | 41017 ft | 536 kts | 140° |
| 2026-04-29 07:12 | 33.10516 | 29.42826 | 41020 ft | 535 kts | 140° |
| 2026-04-29 07:12 | 33.05037 | 29.48865 | 41021 ft | 535 kts | 140° |
| 2026-04-29 07:13 | 32.99572 | 29.54879 | 41010 ft | 535 kts | 141° |
| 2026-04-29 07:13 | 32.94102 | 29.60886 | 41010 ft | 535 kts | 141° |
| 2026-04-29 07:14 | 32.88665 | 29.66847 | 41009 ft | 535 kts | 141° |
| 2026-04-29 07:14 | 32.83190 | 29.72839 | 41012 ft | 535 kts | 141° |
| 2026-04-29 07:15 | 32.77709 | 29.78827 | 41010 ft | 535 kts | 141° |
| 2026-04-29 07:15 | 32.72222 | 29.84812 | 41016 ft | 535 kts | 141° |
| 2026-04-29 07:16 | 32.66741 | 29.90778 | 41010 ft | 534 kts | 141° |
| 2026-04-29 07:16 | 32.61244 | 29.96752 | 41024 ft | 536 kts | 141° |
| 2026-04-29 07:17 | 32.55736 | 30.02729 | 41027 ft | 537 kts | 141° |
| 2026-04-29 07:17 | 32.50217 | 30.08705 | 41029 ft | 537 kts | 141° |
| 2026-04-29 07:18 | 32.44701 | 30.14664 | 41031 ft | 537 kts | 141° |
| 2026-04-29 07:18 | 32.39171 | 30.20615 | 41030 ft | 536 kts | 141° |
| 2026-04-29 07:19 | 32.33655 | 30.26550 | 41004 ft | 536 kts | 142° |
| 2026-04-29 07:19 | 32.28141 | 30.32466 | 41019 ft | 535 kts | 142° |
| 2026-04-29 07:20 | 32.22634 | 30.38369 | 41016 ft | 534 kts | 142° |
| 2026-04-29 07:20 | 32.17160 | 30.44224 | 41014 ft | 534 kts | 142° |
| 2026-04-29 07:21 | 32.11641 | 30.50117 | 41018 ft | 534 kts | 142° |
| 2026-04-29 07:21 | 32.06128 | 30.55995 | 41019 ft | 536 kts | 142° |
| 2026-04-29 07:22 | 32.00589 | 30.61890 | 41027 ft | 537 kts | 142° |
| 2026-04-29 07:22 | 31.95032 | 30.67795 | 41032 ft | 538 kts | 142° |
| 2026-04-29 07:23 | 31.89473 | 30.73692 | 41023 ft | 536 kts | 142° |
| 2026-04-29 07:23 | 31.83933 | 30.79557 | 41022 ft | 535 kts | 142° |
| 2026-04-29 07:24 | 31.78431 | 30.85375 | 41020 ft | 534 kts | 142° |
| 2026-04-29 07:24 | 31.72908 | 30.91203 | 41021 ft | 533 kts | 142° |
| 2026-04-29 07:25 | 31.67374 | 30.97034 | 41016 ft | 534 kts | 142° |
| 2026-04-29 07:25 | 31.61817 | 31.02878 | 41025 ft | 537 kts | 142° |
| 2026-04-29 07:26 | 31.56217 | 31.08672 | 41012 ft | 534 kts | 147° |
| 2026-04-29 07:26 | 31.53111 | 31.10990 | 41017 ft | 525 kts | 159° |
| 2026-04-29 07:26 | 31.49766 | 31.12596 | 41019 ft | 515 kts | 169° |
| 2026-04-29 07:27 | 31.42876 | 31.14139 | 40959 ft | 502 kts | 178° |
| 2026-04-29 07:27 | 31.39419 | 31.14764 | 40141 ft | 505 kts | 178° |
| 2026-04-29 07:27 | 31.35945 | 31.15421 | 39683 ft | 501 kts | 177° |
| 2026-04-29 07:27 | 31.32519 | 31.16084 | 39224 ft | 497 kts | 178° |
| 2026-04-29 07:28 | 31.29090 | 31.16721 | 38437 ft | 502 kts | 178° |
| 2026-04-29 07:28 | 31.25607 | 31.17353 | 37428 ft | 508 kts | 178° |
| 2026-04-29 07:28 | 31.22099 | 31.18008 | 36502 ft | 512 kts | 177° |
| 2026-04-29 07:28 | 31.18556 | 31.18681 | 35591 ft | 516 kts | 177° |
| 2026-04-29 07:29 | 31.15042 | 31.19339 | 34717 ft | 519 kts | 177° |
| 2026-04-29 07:29 | 31.11418 | 31.20007 | 33849 ft | 523 kts | 176° |
| 2026-04-29 07:29 | 31.07855 | 31.20666 | 32893 ft | 527 kts | 176° |
| 2026-04-29 07:29 | 31.04223 | 31.21345 | 31986 ft | 530 kts | 176° |
| 2026-04-29 07:30 | 31.00577 | 31.22028 | 31077 ft | 530 kts | 176° |
| 2026-04-29 07:30 | 30.96946 | 31.22702 | 30206 ft | 529 kts | 177° |
| 2026-04-29 07:30 | 30.93309 | 31.23372 | 29207 ft | 528 kts | 176° |
| 2026-04-29 07:31 | 30.86076 | 31.24714 | 27256 ft | 523 kts | 176° |
| 2026-04-29 07:31 | 30.82543 | 31.25373 | 26326 ft | 500 kts | 175° |
| 2026-04-29 07:31 | 30.79222 | 31.25996 | 25403 ft | 468 kts | 175° |
| 2026-04-29 07:31 | 30.76092 | 31.26572 | 24497 ft | 443 kts | 175° |
| 2026-04-29 07:32 | 30.73108 | 31.27113 | 23622 ft | 430 kts | 175° |
| 2026-04-29 07:32 | 30.70098 | 31.27657 | 22638 ft | 446 kts | 175° |
| 2026-04-29 07:32 | 30.67024 | 31.28226 | 21693 ft | 448 kts | 174° |
| 2026-04-29 07:32 | 30.63944 | 31.28804 | 20779 ft | 448 kts | 174° |
| 2026-04-29 07:33 | 30.60871 | 31.29372 | 19886 ft | 447 kts | 174° |
| 2026-04-29 07:33 | 30.57801 | 31.29932 | 19035 ft | 445 kts | 174° |
| 2026-04-29 07:33 | 30.54748 | 31.30491 | 18181 ft | 443 kts | 174° |
| 2026-04-29 07:33 | 30.51746 | 31.31045 | 17254 ft | 441 kts | 174° |
| 2026-04-29 07:34 | 30.48731 | 31.31601 | 16318 ft | 438 kts | 173° |
| 2026-04-29 07:34 | 30.45732 | 31.32151 | 15421 ft | 434 kts | 173° |
| 2026-04-29 07:34 | 30.42766 | 31.32695 | 14549 ft | 430 kts | 173° |
| 2026-04-29 07:34 | 30.39814 | 31.33238 | 13674 ft | 426 kts | 172° |
| 2026-04-29 07:35 | 30.36899 | 31.33776 | 12723 ft | 422 kts | 173° |
| 2026-04-29 07:35 | 30.34017 | 31.34305 | 11796 ft | 417 kts | 173° |
| 2026-04-29 07:35 | 30.31162 | 31.34828 | 10908 ft | 412 kts | 172° |
| 2026-04-29 07:35 | 30.28344 | 31.35344 | 10041 ft | 407 kts | 172° |
| 2026-04-29 07:36 | 30.25579 | 31.35853 | 9287 ft | 397 kts | 172° |
| 2026-04-29 07:36 | 30.22909 | 31.36342 | 8573 ft | 388 kts | 172° |
| 2026-04-29 07:36 | 30.20267 | 31.36825 | 7847 ft | 380 kts | 173° |
| 2026-04-29 07:36 | 30.17674 | 31.37299 | 7140 ft | 372 kts | 173° |
| 2026-04-29 07:37 | 30.15138 | 31.37764 | 6410 ft | 365 kts | 173° |
| 2026-04-29 07:37 | 30.12656 | 31.38215 | 5698 ft | 358 kts | 173° |
| 2026-04-29 07:37 | 30.10220 | 31.38660 | 5113 ft | 348 kts | 172° |
| 2026-04-29 07:37 | 30.07870 | 31.39092 | 4724 ft | 333 kts | 173° |
| 2026-04-29 07:38 | 30.05639 | 31.39500 | 4502 ft | 315 kts | 173° |
| 2026-04-29 07:38 | 30.03556 | 31.39880 | 4469 ft | 290 kts | 173° |
| 2026-04-29 07:38 | 30.01642 | 31.40228 | 4468 ft | 277 kts | 173° |
| 2026-04-29 07:38 | 29.99755 | 31.40565 | 4470 ft | 273 kts | 173° |
| 2026-04-29 07:39 | 29.97957 | 31.41216 | 4405 ft | 277 kts | 149° |
| 2026-04-29 07:39 | 29.96699 | 31.42873 | 4384 ft | 279 kts | 116° |
| 2026-04-29 07:39 | 29.96393 | 31.45038 | 4380 ft | 272 kts | 83° |
| 2026-04-29 07:39 | 29.97098 | 31.46927 | 4347 ft | 250 kts | 47° |
| 2026-04-29 07:40 | 29.98521 | 31.47962 | 4351 ft | 240 kts | 17° |
| 2026-04-29 07:40 | 30.00120 | 31.48467 | 4479 ft | 239 kts | 11° |
| 2026-04-29 07:40 | 30.01748 | 31.48906 | 4495 ft | 240 kts | 11° |
| 2026-04-29 07:40 | 30.03386 | 31.49334 | 4499 ft | 240 kts | 11° |
| 2026-04-29 07:41 | 30.05016 | 31.49697 | 4461 ft | 237 kts | 2° |
| 2026-04-29 07:41 | 30.06547 | 31.49202 | 4413 ft | 232 kts | 327° |
| 2026-04-29 07:41 | 30.07848 | 31.48082 | 4495 ft | 233 kts | 319° |
| 2026-04-29 07:41 | 30.08729 | 31.46541 | 4446 ft | 232 kts | 287° |
| 2026-04-29 07:42 | 30.09038 | 31.44825 | 4543 ft | 214 kts | 280° |
| 2026-04-29 07:42 | 30.09221 | 31.43136 | 4494 ft | 208 kts | 274° |
| 2026-04-29 07:42 | 30.09262 | 31.41488 | 4481 ft | 205 kts | 269° |
| 2026-04-29 07:42 | 30.08757 | 31.39970 | 4449 ft | 198 kts | 240° |
| 2026-04-29 07:43 | 30.07941 | 31.38704 | 4259 ft | 199 kts | 231° |
| 2026-04-29 07:43 | 30.06855 | 31.37731 | 3913 ft | 198 kts | 209° |
| 2026-04-29 07:43 | 30.05578 | 31.37207 | 3724 ft | 192 kts | 201° |
| 2026-04-29 07:43 | 30.04323 | 31.36688 | 3529 ft | 191 kts | 201° |
| 2026-04-29 07:44 | 30.03071 | 31.36158 | 3342 ft | 192 kts | 201° |
| 2026-04-29 07:44 | 30.01819 | 31.35617 | 3084 ft | 192 kts | 201° |
| 2026-04-29 07:44 | 30.00569 | 31.35074 | 2833 ft | 192 kts | 201° |
| 2026-04-29 07:44 | 29.99318 | 31.34530 | 2593 ft | 192 kts | 201° |
| 2026-04-29 07:45 | 29.98084 | 31.33992 | 2491 ft | 188 kts | 202° |
| 2026-04-29 07:45 | 29.96854 | 31.33455 | 2489 ft | 191 kts | 201° |
| 2026-04-29 07:45 | 29.95612 | 31.32911 | 2484 ft | 190 kts | 201° |
| 2026-04-29 07:45 | 29.94415 | 31.32315 | 2453 ft | 190 kts | 211° |
| 2026-04-29 07:46 | 29.93697 | 31.31084 | 2302 ft | 188 kts | 260° |
| 2026-04-29 07:46 | 29.93939 | 31.29652 | 2304 ft | 183 kts | 295° |
| 2026-04-29 07:46 | 29.94624 | 31.28421 | 2436 ft | 182 kts | 305° |
| 2026-04-29 07:46 | 29.95359 | 31.27205 | 2479 ft | 186 kts | 308° |
| 2026-04-29 07:47 | 29.96416 | 31.26403 | 2378 ft | 185 kts | 347° |
| 2026-04-29 07:47 | 29.97685 | 31.26561 | 2437 ft | 183 kts | 12° |
| 2026-04-29 07:47 | 29.98944 | 31.26894 | 2509 ft | 188 kts | 12° |
| 2026-04-29 07:47 | 30.00115 | 31.27304 | 2449 ft | 171 kts | 24° |
| 2026-04-29 07:48 | 30.01057 | 31.28089 | 2459 ft | 167 kts | 41° |
| 2026-04-29 07:48 | 30.01834 | 31.29078 | 2484 ft | 165 kts | 47° |
| 2026-04-29 07:48 | 30.02565 | 31.30033 | 2475 ft | 153 kts | 47° |
| 2026-04-29 07:48 | 30.03276 | 31.30977 | 2483 ft | 157 kts | 47° |
| 2026-04-29 07:49 | 30.03989 | 31.31924 | 2425 ft | 160 kts | 47° |
| 2026-04-29 07:49 | 30.04712 | 31.32886 | 2194 ft | 154 kts | 47° |
| 2026-04-29 07:49 | 30.05410 | 31.33812 | 2016 ft | 152 kts | 47° |
| 2026-04-29 07:49 | 30.06109 | 31.34724 | 1802 ft | 150 kts | 47° |
| 2026-04-29 07:50 | 30.06792 | 31.35632 | 1598 ft | 149 kts | 47° |
| 2026-04-29 07:50 | 30.07471 | 31.36535 | 1402 ft | 151 kts | 46° |
| 2026-04-29 07:50 | 30.08153 | 31.37444 | 1201 ft | 150 kts | 47° |
| 2026-04-29 07:50 | 30.08843 | 31.38361 | 841 ft | 153 kts | 45° |
| 2026-04-29 07:51 | 30.09548 | 31.39286 | 538 ft | 149 kts | 46° |
| 2026-04-29 07:51 | 30.10218 | 31.40167 | 389 ft | 147 kts | 46° |
| 2026-04-29 07:51 | 30.10801 | 31.40931 | 377 ft | 90 kts | 49° |
| 2026-04-29 07:51 | 30.11048 | 31.41261 | 381 ft | 39 kts | 49° |
| 2026-04-29 07:52 | 30.11228 | 31.41486 | 378 ft | 34 kts | 39° |
| 2026-04-29 07:52 | 30.11343 | 31.41570 | 380 ft | 29 kts | 26° |
| 2026-04-29 07:52 | 30.11453 | 31.41614 | 380 ft | 6 kts | 16° |
| 2026-04-29 07:52 | 30.11501 | 31.41628 | 380 ft | 8 kts | 9° |
| 2026-04-29 07:53 | 30.11550 | 31.41613 | 380 ft | 7 kts | 318° |
| 2026-04-29 07:53 | 30.11560 | 31.41570 | 380 ft | 5 kts | 262° |
| 2026-04-29 07:53 | 30.11542 | 31.41532 | 380 ft | 4 kts | 218° |
| 2026-04-29 07:53 | 30.11532 | 31.41519 | 380 ft | 5 kts | 233° |
| 2026-04-29 07:54 | 30.11490 | 31.41453 | 380 ft | 15 kts | 233° |
| 2026-04-29 07:54 | 30.11409 | 31.41342 | 380 ft | 19 kts | 229° |
| 2026-04-29 07:54 | 30.11318 | 31.41221 | 380 ft | 21 kts | 229° |
| 2026-04-29 07:54 | 30.11222 | 31.41094 | 380 ft | 22 kts | 229° |
| 2026-04-29 07:55 | 30.11119 | 31.40958 | 380 ft | 23 kts | 229° |
| 2026-04-29 07:55 | 30.11059 | 31.40860 | 380 ft | 10 kts | 265° |
| 2026-04-29 07:55 | 30.11079 | 31.40807 | 380 ft | 6 kts | 300° |
| 2026-04-29 07:55 | 30.11087 | 31.40763 | 380 ft | 3 kts | 257° |
| 2026-04-29 07:56 | 30.11080 | 31.40746 | 380 ft | 4 kts | 240° |
| 2026-04-29 07:56 | 30.11053 | 31.40701 | 380 ft | 9 kts | 232° |
| 2026-04-29 07:56 | 30.11035 | 31.40637 | 380 ft | 8 kts | 282° |
| 2026-04-29 07:56 | 30.11070 | 31.40580 | 380 ft | 8 kts | 304° |
| 2026-04-29 07:57 | 30.11081 | 31.40544 | 380 ft | 1 kts | 281° |
| 2026-04-29 07:57 | 30.11082 | 31.40533 | 380 ft | 3 kts | 277° |
| 2026-04-29 07:57 | 30.11084 | 31.40504 | 380 ft | 5 kts | 272° |
| 2026-04-29 07:57 | 30.11085 | 31.40473 | 380 ft | 2 kts | 271° |
| 2026-04-29 07:58 | 30.11085 | 31.40469 | 380 ft | 0 kts | 270° |